sensor_id;sensor_type;location;lat;lon;timestamp;temperature;humidity
66343;DHT22;53144;51.524;5.080;2022-12-18T00:01:33;-4.24;96.22
66343;DHT22;53144;51.524;5.080;2022-12-18T00:04:01;-4.32;96.50
66343;DHT22;53144;51.524;5.080;2022-12-18T00:06:28;-4.32;96.83
66343;DHT22;53144;51.524;5.080;2022-12-18T00:09:02;-4.32;96.23
66343;DHT22;53144;51.524;5.080;2022-12-18T00:11:30;-4.32;96.42
66343;DHT22;53144;51.524;5.080;2022-12-18T00:13:59;-4.41;96.17
66343;DHT22;53144;51.524;5.080;2022-12-18T00:16:29;-4.37;96.27
66343;DHT22;53144;51.524;5.080;2022-12-18T00:18:58;-4.38;95.85
66343;DHT22;53144;51.524;5.080;2022-12-18T00:21:24;-4.45;96.34
66343;DHT22;53144;51.524;5.080;2022-12-18T00:23:52;-4.46;96.72
66343;DHT22;53144;51.524;5.080;2022-12-18T00:26:22;-4.54;96.21
66343;DHT22;53144;51.524;5.080;2022-12-18T00:28:48;-4.55;96.64
66343;DHT22;53144;51.524;5.080;2022-12-18T00:31:18;-4.52;96.36
66343;DHT22;53144;51.524;5.080;2022-12-18T00:33:44;-4.59;96.29
66343;DHT22;53144;51.524;5.080;2022-12-18T00:36:20;-4.54;96.54
66343;DHT22;53144;51.524;5.080;2022-12-18T00:38:46;-4.45;95.81
66343;DHT22;53144;51.524;5.080;2022-12-18T00:41:13;-4.48;94.72
66343;DHT22;53144;51.524;5.080;2022-12-18T00:43:39;-4.61;95.30
66343;DHT22;53144;51.524;5.080;2022-12-18T00:46:05;-4.62;95.84
66343;DHT22;53144;51.524;5.080;2022-12-18T00:48:33;-4.66;96.35
66343;DHT22;53144;51.524;5.080;2022-12-18T00:50:59;-4.82;95.70
66343;DHT22;53144;51.524;5.080;2022-12-18T00:53:24;-4.89;95.60
66343;DHT22;53144;51.524;5.080;2022-12-18T00:55:50;-4.97;95.80
66343;DHT22;53144;51.524;5.080;2022-12-18T00:58:17;-5.04;95.95
66343;DHT22;53144;51.524;5.080;2022-12-18T01:00:43;-5.04;96.15
66343;DHT22;53144;51.524;5.080;2022-12-18T01:03:10;-5.08;95.71
66343;DHT22;53144;51.524;5.080;2022-12-18T01:05:40;-5.01;96.00
66343;DHT22;53144;51.524;5.080;2022-12-18T01:08:05;-5.10;95.54
66343;DHT22;53144;51.524;5.080;2022-12-18T01:10:31;-5.13;95.49
66343;DHT22;53144;51.524;5.080;2022-12-18T01:12:56;-5.20;95.55
66343;DHT22;53144;51.524;5.080;2022-12-18T01:15:22;-5.23;95.46
66343;DHT22;53144;51.524;5.080;2022-12-18T01:17:47;-5.21;96.33
66343;DHT22;53144;51.524;5.080;2022-12-18T01:20:13;-5.23;95.45
66343;DHT22;53144;51.524;5.080;2022-12-18T01:22:41;-5.17;96.19
66343;DHT22;53144;51.524;5.080;2022-12-18T01:25:07;-5.21;96.29
66343;DHT22;53144;51.524;5.080;2022-12-18T01:27:33;-5.28;96.08
66343;DHT22;53144;51.524;5.080;2022-12-18T01:30:02;-5.18;95.84
66343;DHT22;53144;51.524;5.080;2022-12-18T01:32:32;-5.16;95.81
66343;DHT22;53144;51.524;5.080;2022-12-18T01:35:07;-5.16;95.20
66343;DHT22;53144;51.524;5.080;2022-12-18T01:37:32;-5.21;95.53
66343;DHT22;53144;51.524;5.080;2022-12-18T01:39:58;-5.21;95.52
66343;DHT22;53144;51.524;5.080;2022-12-18T01:42:23;-5.26;95.80
66343;DHT22;53144;51.524;5.080;2022-12-18T01:50:02;-5.38;95.55
66343;DHT22;53144;51.524;5.080;2022-12-18T01:52:31;-5.44;95.59
66343;DHT22;53144;51.524;5.080;2022-12-18T01:54:57;-5.50;95.61
66343;DHT22;53144;51.524;5.080;2022-12-18T01:57:24;-5.42;95.07
66343;DHT22;53144;51.524;5.080;2022-12-18T01:59:52;-5.39;95.22
66343;DHT22;53144;51.524;5.080;2022-12-18T02:02:19;-5.45;95.65
66343;DHT22;53144;51.524;5.080;2022-12-18T02:04:45;-5.48;95.74
66343;DHT22;53144;51.524;5.080;2022-12-18T02:07:23;-5.41;95.70
66343;DHT22;53144;51.524;5.080;2022-12-18T02:12:23;-5.51;94.92
66343;DHT22;53144;51.524;5.080;2022-12-18T02:20:36;-5.39;94.88
66343;DHT22;53144;51.524;5.080;2022-12-18T02:23:28;-5.48;95.19
66343;DHT22;53144;51.524;5.080;2022-12-18T02:28:35;-5.42;95.19
66343;DHT22;53144;51.524;5.080;2022-12-18T02:31:07;-5.47;94.99
66343;DHT22;53144;51.524;5.080;2022-12-18T02:33:35;-5.45;95.09
66343;DHT22;53144;51.524;5.080;2022-12-18T02:36:01;-5.52;94.71
66343;DHT22;53144;51.524;5.080;2022-12-18T02:38:28;-5.52;94.65
66343;DHT22;53144;51.524;5.080;2022-12-18T02:40:57;-5.54;94.70
66343;DHT22;53144;51.524;5.080;2022-12-18T02:43:23;-5.62;94.42
66343;DHT22;53144;51.524;5.080;2022-12-18T02:45:55;-5.58;94.44
66343;DHT22;53144;51.524;5.080;2022-12-18T02:48:39;-5.56;95.00
66343;DHT22;53144;51.524;5.080;2022-12-18T02:51:38;-5.69;94.55
66343;DHT22;53144;51.524;5.080;2022-12-18T02:54:23;-5.55;93.91
66343;DHT22;53144;51.524;5.080;2022-12-18T02:56:54;-5.65;94.03
66343;DHT22;53144;51.524;5.080;2022-12-18T02:59:40;-5.65;94.11
66343;DHT22;53144;51.524;5.080;2022-12-18T03:02:23;-5.71;94.70
66343;DHT22;53144;51.524;5.080;2022-12-18T03:05:14;-5.61;94.70
66343;DHT22;53144;51.524;5.080;2022-12-18T03:07:55;-5.66;94.28
66343;DHT22;53144;51.524;5.080;2022-12-18T03:10:26;-5.69;94.27
66343;DHT22;53144;51.524;5.080;2022-12-18T03:13:14;-5.71;94.07
66343;DHT22;53144;51.524;5.080;2022-12-18T03:15:44;-5.79;93.71
66343;DHT22;53144;51.524;5.080;2022-12-18T03:18:21;-5.75;93.71
66343;DHT22;53144;51.524;5.080;2022-12-18T03:20:49;-5.79;93.05
66343;DHT22;53144;51.524;5.080;2022-12-18T03:23:24;-5.93;93.58
66343;DHT22;53144;51.524;5.080;2022-12-18T03:25:53;-5.97;93.60
66343;DHT22;53144;51.524;5.080;2022-12-18T03:28:21;-6.13;93.36
66343;DHT22;53144;51.524;5.080;2022-12-18T03:30:47;-6.06;94.28
66343;DHT22;53144;51.524;5.080;2022-12-18T03:33:21;-6.05;94.50
66343;DHT22;53144;51.524;5.080;2022-12-18T03:35:49;-6.03;94.60
66343;DHT22;53144;51.524;5.080;2022-12-18T03:38:15;-6.02;94.14
66343;DHT22;53144;51.524;5.080;2022-12-18T03:43:20;-6.02;94.72
66343;DHT22;53144;51.524;5.080;2022-12-18T03:46:02;-5.99;94.60
66343;DHT22;53144;51.524;5.080;2022-12-18T03:48:42;-5.97;95.03
66343;DHT22;53144;51.524;5.080;2022-12-18T03:51:16;-5.95;94.71
66343;DHT22;53144;51.524;5.080;2022-12-18T03:54:00;-5.95;94.80
66343;DHT22;53144;51.524;5.080;2022-12-18T03:56:30;-5.92;94.53
66343;DHT22;53144;51.524;5.080;2022-12-18T03:58:57;-5.96;94.30
66343;DHT22;53144;51.524;5.080;2022-12-18T04:01:32;-6.02;94.31
66343;DHT22;53144;51.524;5.080;2022-12-18T04:04:00;-6.02;94.14
66343;DHT22;53144;51.524;5.080;2022-12-18T04:06:28;-6.09;94.29
66343;DHT22;53144;51.524;5.080;2022-12-18T04:08:54;-6.00;94.53
66343;DHT22;53144;51.524;5.080;2022-12-18T04:11:20;-5.99;94.36
66343;DHT22;53144;51.524;5.080;2022-12-18T04:13:45;-6.10;94.27
66343;DHT22;53144;51.524;5.080;2022-12-18T04:16:11;-6.06;94.20
66343;DHT22;53144;51.524;5.080;2022-12-18T04:18:36;-6.06;94.27
66343;DHT22;53144;51.524;5.080;2022-12-18T04:21:02;-6.10;93.59
66343;DHT22;53144;51.524;5.080;2022-12-18T04:23:28;-6.16;93.57
66343;DHT22;53144;51.524;5.080;2022-12-18T04:25:54;-6.09;93.69
66343;DHT22;53144;51.524;5.080;2022-12-18T04:28:22;-6.09;93.14
66343;DHT22;53144;51.524;5.080;2022-12-18T04:30:47;-6.18;93.77
66343;DHT22;53144;51.524;5.080;2022-12-18T04:33:13;-6.11;93.66
66343;DHT22;53144;51.524;5.080;2022-12-18T04:35:40;-6.21;93.20
66343;DHT22;53144;51.524;5.080;2022-12-18T04:38:06;-6.30;94.02
66343;DHT22;53144;51.524;5.080;2022-12-18T04:40:33;-6.38;93.84
66343;DHT22;53144;51.524;5.080;2022-12-18T04:42:59;-6.31;93.51
66343;DHT22;53144;51.524;5.080;2022-12-18T04:45:24;-6.31;93.59
66343;DHT22;53144;51.524;5.080;2022-12-18T04:47:52;-6.33;93.61
66343;DHT22;53144;51.524;5.080;2022-12-18T04:50:20;-6.31;93.93
66343;DHT22;53144;51.524;5.080;2022-12-18T04:52:45;-6.37;93.45
66343;DHT22;53144;51.524;5.080;2022-12-18T04:55:11;-6.37;93.69
66343;DHT22;53144;51.524;5.080;2022-12-18T04:57:36;-6.44;93.87
66343;DHT22;53144;51.524;5.080;2022-12-18T05:00:05;-6.48;94.13
66343;DHT22;53144;51.524;5.080;2022-12-18T05:02:31;-6.44;93.78
66343;DHT22;53144;51.524;5.080;2022-12-18T05:04:56;-6.42;93.80
66343;DHT22;53144;51.524;5.080;2022-12-18T05:07:22;-6.42;93.56
66343;DHT22;53144;51.524;5.080;2022-12-18T05:09:47;-6.48;93.64
66343;DHT22;53144;51.524;5.080;2022-12-18T05:12:13;-6.41;94.02
66343;DHT22;53144;51.524;5.080;2022-12-18T05:14:41;-6.37;94.33
66343;DHT22;53144;51.524;5.080;2022-12-18T05:17:06;-6.33;94.31
66343;DHT22;53144;51.524;5.080;2022-12-18T05:19:35;-6.28;93.84
66343;DHT22;53144;51.524;5.080;2022-12-18T05:22:01;-6.28;94.12
66343;DHT22;53144;51.524;5.080;2022-12-18T05:24:26;-6.31;93.66
66343;DHT22;53144;51.524;5.080;2022-12-18T05:26:52;-6.36;94.02
66343;DHT22;53144;51.524;5.080;2022-12-18T05:29:17;-6.31;94.35
66343;DHT22;53144;51.524;5.080;2022-12-18T05:31:42;-6.31;93.90
66343;DHT22;53144;51.524;5.080;2022-12-18T05:34:08;-6.30;93.91
66343;DHT22;53144;51.524;5.080;2022-12-18T05:36:33;-6.31;93.89
66343;DHT22;53144;51.524;5.080;2022-12-18T05:38:59;-6.34;93.99
66343;DHT22;53144;51.524;5.080;2022-12-18T05:41:25;-6.28;94.24
66343;DHT22;53144;51.524;5.080;2022-12-18T05:43:51;-6.24;94.08
66343;DHT22;53144;51.524;5.080;2022-12-18T05:46:17;-6.27;94.06
66343;DHT22;53144;51.524;5.080;2022-12-18T05:48:44;-6.23;94.07
66343;DHT22;53144;51.524;5.080;2022-12-18T05:51:15;-6.28;93.90
66343;DHT22;53144;51.524;5.080;2022-12-18T05:53:41;-6.30;93.79
66343;DHT22;53144;51.524;5.080;2022-12-18T05:56:11;-6.30;93.82
66343;DHT22;53144;51.524;5.080;2022-12-18T05:58:36;-6.28;93.65
66343;DHT22;53144;51.524;5.080;2022-12-18T06:01:13;-6.26;93.77
66343;DHT22;53144;51.524;5.080;2022-12-18T06:03:42;-6.37;93.47
66343;DHT22;53144;51.524;5.080;2022-12-18T06:06:17;-6.34;93.40
66343;DHT22;53144;51.524;5.080;2022-12-18T06:08:43;-6.40;93.59
66343;DHT22;53144;51.524;5.080;2022-12-18T06:11:09;-6.38;93.64
66343;DHT22;53144;51.524;5.080;2022-12-18T06:13:34;-6.33;94.07
66343;DHT22;53144;51.524;5.080;2022-12-18T06:16:03;-6.34;93.85
66343;DHT22;53144;51.524;5.080;2022-12-18T06:18:28;-6.38;93.72
66343;DHT22;53144;51.524;5.080;2022-12-18T06:20:57;-6.41;93.76
66343;DHT22;53144;51.524;5.080;2022-12-18T06:23:28;-6.40;93.83
66343;DHT22;53144;51.524;5.080;2022-12-18T06:25:54;-6.36;93.81
66343;DHT22;53144;51.524;5.080;2022-12-18T06:28:19;-6.37;93.93
66343;DHT22;53144;51.524;5.080;2022-12-18T06:30:46;-6.33;93.63
66343;DHT22;53144;51.524;5.080;2022-12-18T06:33:12;-6.37;93.45
66343;DHT22;53144;51.524;5.080;2022-12-18T06:35:37;-6.44;93.44
66343;DHT22;53144;51.524;5.080;2022-12-18T06:38:03;-6.45;93.84
66343;DHT22;53144;51.524;5.080;2022-12-18T06:40:29;-6.41;93.73
66343;DHT22;53144;51.524;5.080;2022-12-18T06:42:57;-6.42;93.68
66343;DHT22;53144;51.524;5.080;2022-12-18T06:45:22;-6.44;93.54
66343;DHT22;53144;51.524;5.080;2022-12-18T06:47:47;-6.38;93.80
66343;DHT22;53144;51.524;5.080;2022-12-18T06:50:13;-6.40;93.94
66343;DHT22;53144;51.524;5.080;2022-12-18T06:52:39;-6.38;94.01
66343;DHT22;53144;51.524;5.080;2022-12-18T06:55:10;-6.31;94.05
66343;DHT22;53144;51.524;5.080;2022-12-18T06:57:36;-6.31;94.05
66343;DHT22;53144;51.524;5.080;2022-12-18T07:00:03;-6.28;93.76
66343;DHT22;53144;51.524;5.080;2022-12-18T07:02:30;-6.21;93.64
66343;DHT22;53144;51.524;5.080;2022-12-18T07:04:55;-6.17;93.58
66343;DHT22;53144;51.524;5.080;2022-12-18T07:07:20;-6.23;93.88
66343;DHT22;53144;51.524;5.080;2022-12-18T07:09:46;-6.26;93.70
66343;DHT22;53144;51.524;5.080;2022-12-18T07:12:11;-6.21;93.64
66343;DHT22;53144;51.524;5.080;2022-12-18T07:14:37;-6.28;93.63
66343;DHT22;53144;51.524;5.080;2022-12-18T07:17:02;-6.27;93.76
66343;DHT22;53144;51.524;5.080;2022-12-18T07:19:28;-6.28;93.66
66343;DHT22;53144;51.524;5.080;2022-12-18T07:21:53;-6.27;93.55
66343;DHT22;53144;51.524;5.080;2022-12-18T07:24:19;-6.28;93.67
66343;DHT22;53144;51.524;5.080;2022-12-18T07:26:48;-6.31;93.81
66343;DHT22;53144;51.524;5.080;2022-12-18T07:29:13;-6.30;93.28
66343;DHT22;53144;51.524;5.080;2022-12-18T07:31:38;-6.30;93.39
66343;DHT22;53144;51.524;5.080;2022-12-18T07:34:04;-6.24;93.52
66343;DHT22;53144;51.524;5.080;2022-12-18T07:36:29;-6.26;93.59
66343;DHT22;53144;51.524;5.080;2022-12-18T07:38:55;-6.20;93.64
66343;DHT22;53144;51.524;5.080;2022-12-18T07:41:21;-6.14;93.50
66343;DHT22;53144;51.524;5.080;2022-12-18T07:43:47;-6.16;93.33
66343;DHT22;53144;51.524;5.080;2022-12-18T07:46:14;-6.20;93.45
66343;DHT22;53144;51.524;5.080;2022-12-18T07:48:43;-6.18;93.31
66343;DHT22;53144;51.524;5.080;2022-12-18T07:51:10;-6.17;93.31
66343;DHT22;53144;51.524;5.080;2022-12-18T07:53:36;-6.17;93.43
66343;DHT22;53144;51.524;5.080;2022-12-18T07:56:05;-6.16;93.57
66343;DHT22;53144;51.524;5.080;2022-12-18T07:58:33;-6.11;93.64
66343;DHT22;53144;51.524;5.080;2022-12-18T08:03:28;-5.97;93.35
66343;DHT22;53144;51.524;5.080;2022-12-18T08:05:58;-5.95;93.43
66343;DHT22;53144;51.524;5.080;2022-12-18T08:08:24;-5.85;93.32
66343;DHT22;53144;51.524;5.080;2022-12-18T08:10:49;-5.83;93.00
66343;DHT22;53144;51.524;5.080;2022-12-18T08:13:17;-5.81;93.28
66343;DHT22;53144;51.524;5.080;2022-12-18T08:15:42;-5.78;92.98
66343;DHT22;53144;51.524;5.080;2022-12-18T08:18:07;-5.83;93.10
66343;DHT22;53144;51.524;5.080;2022-12-18T08:20:33;-5.83;93.18
66343;DHT22;53144;51.524;5.080;2022-12-18T08:22:58;-5.68;92.94
66343;DHT22;53144;51.524;5.080;2022-12-18T08:25:24;-5.64;93.22
66343;DHT22;53144;51.524;5.080;2022-12-18T08:27:49;-5.61;93.38
66343;DHT22;53144;51.524;5.080;2022-12-18T08:30:14;-5.52;93.18
66343;DHT22;53144;51.524;5.080;2022-12-18T08:32:40;-5.51;93.30
66343;DHT22;53144;51.524;5.080;2022-12-18T08:35:06;-5.42;93.08
66343;DHT22;53144;51.524;5.080;2022-12-18T08:37:31;-5.32;93.12
66343;DHT22;53144;51.524;5.080;2022-12-18T08:39:56;-5.32;92.61
66343;DHT22;53144;51.524;5.080;2022-12-18T08:42:22;-5.23;92.56
66343;DHT22;53144;51.524;5.080;2022-12-18T08:45:06;-5.18;92.57
66343;DHT22;53144;51.524;5.080;2022-12-18T08:47:32;-5.13;92.25
66343;DHT22;53144;51.524;5.080;2022-12-18T08:50:03;-5.13;92.34
66343;DHT22;53144;51.524;5.080;2022-12-18T08:52:31;-5.14;92.72
66343;DHT22;53144;51.524;5.080;2022-12-18T08:54:57;-4.99;92.43
66343;DHT22;53144;51.524;5.080;2022-12-18T08:57:23;-4.95;92.15
66343;DHT22;53144;51.524;5.080;2022-12-18T08:59:52;-4.86;92.28
66343;DHT22;53144;51.524;5.080;2022-12-18T09:02:17;-4.83;92.34
66343;DHT22;53144;51.524;5.080;2022-12-18T09:04:43;-4.75;92.21
66343;DHT22;53144;51.524;5.080;2022-12-18T09:07:12;-4.65;92.16
66343;DHT22;53144;51.524;5.080;2022-12-18T09:09:38;-4.58;91.78
66343;DHT22;53144;51.524;5.080;2022-12-18T09:12:03;-4.54;91.61
66343;DHT22;53144;51.524;5.080;2022-12-18T09:14:29;-4.48;91.48
66343;DHT22;53144;51.524;5.080;2022-12-18T09:16:54;-4.46;91.82
66343;DHT22;53144;51.524;5.080;2022-12-18T09:19:20;-4.37;91.40
66343;DHT22;53144;51.524;5.080;2022-12-18T09:21:45;-4.31;91.18
66343;DHT22;53144;51.524;5.080;2022-12-18T09:24:12;-4.31;91.43
66343;DHT22;53144;51.524;5.080;2022-12-18T09:26:38;-4.25;91.46
66343;DHT22;53144;51.524;5.080;2022-12-18T09:29:03;-4.17;91.34
66343;DHT22;53144;51.524;5.080;2022-12-18T09:31:29;-4.14;90.96
66343;DHT22;53144;51.524;5.080;2022-12-18T09:33:55;-4.11;91.17
66343;DHT22;53144;51.524;5.080;2022-12-18T09:36:21;-4.04;91.07
66343;DHT22;53144;51.524;5.080;2022-12-18T09:38:47;-3.93;90.79
66343;DHT22;53144;51.524;5.080;2022-12-18T09:43:45;-3.76;90.57
66343;DHT22;53144;51.524;5.080;2022-12-18T09:46:19;-3.63;90.23
66343;DHT22;53144;51.524;5.080;2022-12-18T09:48:49;-3.54;89.99
66343;DHT22;53144;51.524;5.080;2022-12-18T09:51:27;-3.51;89.80
66343;DHT22;53144;51.524;5.080;2022-12-18T09:53:59;-3.46;89.85
66343;DHT22;53144;51.524;5.080;2022-12-18T09:56:29;-3.37;89.75
66343;DHT22;53144;51.524;5.080;2022-12-18T09:59:01;-3.41;88.98
66343;DHT22;53144;51.524;5.080;2022-12-18T10:01:31;-3.44;89.82
66343;DHT22;53144;51.524;5.080;2022-12-18T10:03:57;-3.37;89.59
66343;DHT22;53144;51.524;5.080;2022-12-18T10:08:58;-3.30;90.82
66343;DHT22;53144;51.524;5.080;2022-12-18T10:11:51;-3.21;90.00
66343;DHT22;53144;51.524;5.080;2022-12-18T10:16:51;-3.12;89.62
66343;DHT22;53144;51.524;5.080;2022-12-18T10:19:29;-3.08;89.65
66343;DHT22;53144;51.524;5.080;2022-12-18T10:22:10;-3.01;89.70
66343;DHT22;53144;51.524;5.080;2022-12-18T10:24:45;-3.04;89.35
66343;DHT22;53144;51.524;5.080;2022-12-18T10:27:18;-3.03;89.36
66343;DHT22;53144;51.524;5.080;2022-12-18T10:29:44;-3.07;90.99
66343;DHT22;53144;51.524;5.080;2022-12-18T10:32:30;-2.97;90.04
66343;DHT22;53144;51.524;5.080;2022-12-18T10:34:57;-2.96;90.13
66343;DHT22;53144;51.524;5.080;2022-12-18T10:37:30;-2.94;89.79
66343;DHT22;53144;51.524;5.080;2022-12-18T10:40:13;-2.91;90.00
66343;DHT22;53144;51.524;5.080;2022-12-18T10:42:40;-2.84;90.18
66343;DHT22;53144;51.524;5.080;2022-12-18T10:45:15;-2.80;90.41
66343;DHT22;53144;51.524;5.080;2022-12-18T10:47:46;-2.73;89.97
66343;DHT22;53144;51.524;5.080;2022-12-18T10:50:29;-2.66;89.79
66343;DHT22;53144;51.524;5.080;2022-12-18T10:52:57;-2.73;90.17
66343;DHT22;53144;51.524;5.080;2022-12-18T10:55:32;-2.66;90.47
66343;DHT22;53144;51.524;5.080;2022-12-18T10:58:28;-2.62;90.07
66343;DHT22;53144;51.524;5.080;2022-12-18T11:06:12;-2.53;89.99
66343;DHT22;53144;51.524;5.080;2022-12-18T11:08:38;-2.45;89.83
66343;DHT22;53144;51.524;5.080;2022-12-18T11:11:20;-2.39;89.34
66343;DHT22;53144;51.524;5.080;2022-12-18T11:14:05;-2.38;89.86
66343;DHT22;53144;51.524;5.080;2022-12-18T11:16:43;-2.32;89.52
66343;DHT22;53144;51.524;5.080;2022-12-18T11:19:32;-2.28;89.61
66343;DHT22;53144;51.524;5.080;2022-12-18T11:21:58;-2.29;89.12
66343;DHT22;53144;51.524;5.080;2022-12-18T11:24:35;-2.28;88.97
66343;DHT22;53144;51.524;5.080;2022-12-18T11:27:05;-2.18;89.77
66343;DHT22;53144;51.524;5.080;2022-12-18T11:29:36;-2.11;89.53
66343;DHT22;53144;51.524;5.080;2022-12-18T11:34:41;-2.04;89.47
66343;DHT22;53144;51.524;5.080;2022-12-18T11:37:09;-2.01;88.77
66343;DHT22;53144;51.524;5.080;2022-12-18T11:39:40;-1.95;89.52
66343;DHT22;53144;51.524;5.080;2022-12-18T11:44:54;-1.95;89.62
66343;DHT22;53144;51.524;5.080;2022-12-18T11:47:40;-1.99;89.76
66343;DHT22;53144;51.524;5.080;2022-12-18T11:50:11;-1.90;89.22
66343;DHT22;53144;51.524;5.080;2022-12-18T11:52:42;-1.91;89.08
66343;DHT22;53144;51.524;5.080;2022-12-18T11:55:13;-1.93;88.40
66343;DHT22;53144;51.524;5.080;2022-12-18T12:01:18;-1.90;88.81
66343;DHT22;53144;51.524;5.080;2022-12-18T12:09:38;-1.77;89.02
66343;DHT22;53144;51.524;5.080;2022-12-18T12:14:54;-1.67;88.12
66343;DHT22;53144;51.524;5.080;2022-12-18T12:17:40;-1.63;88.86
66343;DHT22;53144;51.524;5.080;2022-12-18T12:23:05;-1.60;88.98
66343;DHT22;53144;51.524;5.080;2022-12-18T12:25:57;-1.55;87.85
66343;DHT22;53144;51.524;5.080;2022-12-18T12:33:56;-1.46;88.82
66343;DHT22;53144;51.524;5.080;2022-12-18T12:39:16;-1.46;88.50
66343;DHT22;53144;51.524;5.080;2022-12-18T12:41:45;-1.40;89.30
66343;DHT22;53144;51.524;5.080;2022-12-18T12:44:43;-1.36;89.16
66343;DHT22;53144;51.524;5.080;2022-12-18T12:47:18;-1.32;89.24
66343;DHT22;53144;51.524;5.080;2022-12-18T12:49:46;-1.32;88.33
66343;DHT22;53144;51.524;5.080;2022-12-18T12:52:32;-1.32;88.52
66343;DHT22;53144;51.524;5.080;2022-12-18T12:54:59;-1.29;88.57
66343;DHT22;53144;51.524;5.080;2022-12-18T12:57:40;-1.28;88.66
66343;DHT22;53144;51.524;5.080;2022-12-18T13:00:13;-1.29;87.93
66343;DHT22;53144;51.524;5.080;2022-12-18T13:03:01;-1.32;88.34
66343;DHT22;53144;51.524;5.080;2022-12-18T13:06:00;-1.34;88.46
66343;DHT22;53144;51.524;5.080;2022-12-18T13:08:55;-1.34;88.63
66343;DHT22;53144;51.524;5.080;2022-12-18T13:11:47;-1.28;88.97
66343;DHT22;53144;51.524;5.080;2022-12-18T13:14:36;-1.19;88.72
66343;DHT22;53144;51.524;5.080;2022-12-18T13:19:40;-1.13;88.88
66343;DHT22;53144;51.524;5.080;2022-12-18T13:22:24;-1.22;88.48
66343;DHT22;53144;51.524;5.080;2022-12-18T13:24:50;-1.18;87.87
66343;DHT22;53144;51.524;5.080;2022-12-18T13:38:37;-1.15;89.03
66343;DHT22;53144;51.524;5.080;2022-12-18T13:43:53;-1.08;88.35
66343;DHT22;53144;51.524;5.080;2022-12-18T13:49:14;-1.07;88.51
66343;DHT22;53144;51.524;5.080;2022-12-18T13:51:51;-1.05;88.80
66343;DHT22;53144;51.524;5.080;2022-12-18T13:54:39;-1.04;88.41
66343;DHT22;53144;51.524;5.080;2022-12-18T13:59:54;-1.08;88.34
66343;DHT22;53144;51.524;5.080;2022-12-18T14:02:22;-1.05;87.88
66343;DHT22;53144;51.524;5.080;2022-12-18T14:04:49;-1.05;88.18
66343;DHT22;53144;51.524;5.080;2022-12-18T14:07:17;-1.09;88.32
66343;DHT22;53144;51.524;5.080;2022-12-18T14:09:48;-1.07;88.08
66343;DHT22;53144;51.524;5.080;2022-12-18T14:12:17;-1.07;88.49
66343;DHT22;53144;51.524;5.080;2022-12-18T14:15:03;-1.02;88.72
66343;DHT22;53144;51.524;5.080;2022-12-18T14:17:30;-1.04;89.36
66343;DHT22;53144;51.524;5.080;2022-12-18T14:19:57;-1.08;89.41
66343;DHT22;53144;51.524;5.080;2022-12-18T14:22:26;-1.01;89.17
66343;DHT22;53144;51.524;5.080;2022-12-18T14:25:19;-1.01;88.75
66343;DHT22;53144;51.524;5.080;2022-12-18T14:27:49;-1.01;88.51
66343;DHT22;53144;51.524;5.080;2022-12-18T14:30:42;-1.01;88.87
66343;DHT22;53144;51.524;5.080;2022-12-18T14:35:35;-0.92;88.81
66343;DHT22;53144;51.524;5.080;2022-12-18T14:41:06;-1.04;89.37
66343;DHT22;53144;51.524;5.080;2022-12-18T14:43:36;-1.01;89.32
66343;DHT22;53144;51.524;5.080;2022-12-18T14:46:03;-1.04;89.20
66343;DHT22;53144;51.524;5.080;2022-12-18T14:48:40;-0.99;89.14
66343;DHT22;53144;51.524;5.080;2022-12-18T14:53:41;-1.01;89.12
66343;DHT22;53144;51.524;5.080;2022-12-18T14:56:19;-1.02;88.89
66343;DHT22;53144;51.524;5.080;2022-12-18T14:58:50;-0.97;89.04
66343;DHT22;53144;51.524;5.080;2022-12-18T15:01:28;-0.94;89.12
66343;DHT22;53144;51.524;5.080;2022-12-18T15:03:55;-1.02;89.38
66343;DHT22;53144;51.524;5.080;2022-12-18T15:06:28;-0.97;89.68
66343;DHT22;53144;51.524;5.080;2022-12-18T15:08:57;-1.07;89.12
66343;DHT22;53144;51.524;5.080;2022-12-18T15:11:34;-1.01;89.13
66343;DHT22;53144;51.524;5.080;2022-12-18T15:14:21;-1.04;89.29
66343;DHT22;53144;51.524;5.080;2022-12-18T15:16:52;-0.88;88.94
66343;DHT22;53144;51.524;5.080;2022-12-18T15:19:20;-0.92;88.91
66343;DHT22;53144;51.524;5.080;2022-12-18T15:21:46;-0.91;88.96
66343;DHT22;53144;51.524;5.080;2022-12-18T15:24:22;-0.98;89.24
66343;DHT22;53144;51.524;5.080;2022-12-18T15:26:49;-0.97;89.20
66343;DHT22;53144;51.524;5.080;2022-12-18T15:29:19;-0.98;89.27
66343;DHT22;53144;51.524;5.080;2022-12-18T15:32:01;-0.98;89.01
66343;DHT22;53144;51.524;5.080;2022-12-18T15:34:27;-0.98;89.23
66343;DHT22;53144;51.524;5.080;2022-12-18T15:36:53;-0.98;89.11
66343;DHT22;53144;51.524;5.080;2022-12-18T15:39:19;-0.97;88.67
66343;DHT22;53144;51.524;5.080;2022-12-18T15:41:44;-0.94;89.03
66343;DHT22;53144;51.524;5.080;2022-12-18T15:44:30;-0.95;88.79
66343;DHT22;53144;51.524;5.080;2022-12-18T15:46:56;-0.95;88.92
66343;DHT22;53144;51.524;5.080;2022-12-18T15:49:21;-0.89;88.94
66343;DHT22;53144;51.524;5.080;2022-12-18T15:51:51;-0.94;88.49
66343;DHT22;53144;51.524;5.080;2022-12-18T15:54:17;-0.89;88.71
66343;DHT22;53144;51.524;5.080;2022-12-18T15:56:42;-0.89;88.82
66343;DHT22;53144;51.524;5.080;2022-12-18T15:59:26;-0.88;88.81
66343;DHT22;53144;51.524;5.080;2022-12-18T16:01:52;-0.83;88.26
66343;DHT22;53144;51.524;5.080;2022-12-18T16:04:19;-0.81;88.35
66343;DHT22;53144;51.524;5.080;2022-12-18T16:06:46;-0.81;88.68
66343;DHT22;53144;51.524;5.080;2022-12-18T16:09:11;-0.85;88.84
66343;DHT22;53144;51.524;5.080;2022-12-18T16:11:39;-0.81;89.08
66343;DHT22;53144;51.524;5.080;2022-12-18T16:14:23;-0.80;88.70
66343;DHT22;53144;51.524;5.080;2022-12-18T16:16:51;-0.73;88.81
66343;DHT22;53144;51.524;5.080;2022-12-18T16:19:17;-0.80;88.72
66343;DHT22;53144;51.524;5.080;2022-12-18T16:21:43;-0.73;88.63
66343;DHT22;53144;51.524;5.080;2022-12-18T16:24:23;-0.73;88.66
66343;DHT22;53144;51.524;5.080;2022-12-18T16:26:49;-0.71;88.47
66343;DHT22;53144;51.524;5.080;2022-12-18T16:29:19;-0.71;88.13
66343;DHT22;53144;51.524;5.080;2022-12-18T16:31:44;-0.70;88.54
66343;DHT22;53144;51.524;5.080;2022-12-18T16:34:30;-0.67;88.67
66343;DHT22;53144;51.524;5.080;2022-12-18T16:36:57;-0.66;88.44
66343;DHT22;53144;51.524;5.080;2022-12-18T16:39:24;-0.63;88.31
66343;DHT22;53144;51.524;5.080;2022-12-18T16:41:49;-0.61;88.53
66343;DHT22;53144;51.524;5.080;2022-12-18T16:44:15;-0.63;88.62
66343;DHT22;53144;51.524;5.080;2022-12-18T16:46:40;-0.59;88.65
66343;DHT22;53144;51.524;5.080;2022-12-18T16:49:11;-0.53;88.84
66343;DHT22;53144;51.524;5.080;2022-12-18T16:51:37;-0.59;87.99
66343;DHT22;53144;51.524;5.080;2022-12-18T16:54:03;-0.61;87.97
66343;DHT22;53144;51.524;5.080;2022-12-18T16:56:29;-0.59;88.32
66343;DHT22;53144;51.524;5.080;2022-12-18T16:58:59;-0.54;87.93
66343;DHT22;53144;51.524;5.080;2022-12-18T17:01:26;-0.53;87.99
66343;DHT22;53144;51.524;5.080;2022-12-18T17:03:56;-0.46;88.13
66343;DHT22;53144;51.524;5.080;2022-12-18T17:06:26;-0.46;87.66
66343;DHT22;53144;51.524;5.080;2022-12-18T17:09:04;-0.44;87.57
66343;DHT22;53144;51.524;5.080;2022-12-18T17:11:37;-0.43;87.62
66343;DHT22;53144;51.524;5.080;2022-12-18T17:14:14;-0.43;87.47
66343;DHT22;53144;51.524;5.080;2022-12-18T17:16:43;-0.39;87.33
66343;DHT22;53144;51.524;5.080;2022-12-18T17:19:09;-0.37;87.73
66343;DHT22;53144;51.524;5.080;2022-12-18T17:21:35;-0.39;87.81